createdAt,value
2019-05-03T00:02:28.495Z,100372.19
2019-05-03T00:05:16.001Z,100369.83
2019-05-03T00:07:52.630Z,100374.97
2019-05-03T00:10:24.022Z,100370.95
2019-05-03T00:12:56.440Z,100371.36
2019-05-03T00:15:42.886Z,100379.33
2019-05-03T00:18:15.132Z,100379.03
2019-05-03T00:20:46.743Z,100379.93
2019-05-03T00:23:18.379Z,100382.27
2019-05-03T00:25:49.685Z,100379.64
2019-05-03T00:28:22.000Z,100376.06
2019-05-03T00:30:54.251Z,100383.37
2019-05-03T00:33:26.127Z,100381.77
2019-05-03T00:36:22.541Z,100390.32
2019-05-03T00:38:57.547Z,100385.14
2019-05-03T00:41:28.934Z,100388.63
2019-05-03T00:44:02.236Z,100387.37
2019-05-03T00:46:34.562Z,100381.88
2019-05-03T00:49:06.364Z,100378.98
2019-05-03T00:51:42.302Z,100386.89
2019-05-03T00:54:13.298Z,100375.93
2019-05-03T00:56:46.243Z,100368.26
2019-05-03T00:59:17.886Z,100373.61
2019-05-03T01:01:49.041Z,100369.63
2019-05-03T01:04:22.211Z,100370.90
2019-05-03T01:06:53.614Z,100374.75
2019-05-03T01:09:25.581Z,100375.08
2019-05-03T01:11:56.908Z,100370.83
2019-05-03T01:14:28.235Z,100381.64
2019-05-03T01:16:59.548Z,100377.05
2019-05-03T01:19:32.021Z,100378.56
2019-05-03T01:22:04.672Z,100386.78
2019-05-03T01:24:35.963Z,100391.91
2019-05-03T01:27:07.566Z,100382.41
2019-05-03T01:29:39.115Z,100381.94
2019-05-03T01:32:11.593Z,100383.44
2019-05-03T01:34:43.772Z,100379.96
2019-05-03T01:37:14.959Z,100370.95
2019-05-03T01:39:46.574Z,100378.06
2019-05-03T01:42:17.865Z,100378.38
2019-05-03T01:44:52.275Z,100385.45
2019-05-03T01:47:32.592Z,100387.47
2019-05-03T01:50:25.220Z,100390.64
2019-05-03T01:52:57.416Z,100388.09
2019-05-03T01:55:46.861Z,100394.71
2019-05-03T01:58:18.103Z,100399.06
2019-05-03T02:00:51.897Z,100397.12
2019-05-03T02:03:33.118Z,100392.84
2019-05-03T02:06:04.375Z,100378.28
2019-05-03T02:08:35.634Z,100386.11
2019-05-03T02:11:07.977Z,100392.11
2019-05-03T02:13:39.170Z,100384.86
2019-05-03T02:16:11.564Z,100386.41
2019-05-03T02:18:42.924Z,100388.70
2019-05-03T02:21:16.324Z,100388.22
2019-05-03T02:23:47.688Z,100382.51
2019-05-03T02:26:19.163Z,100390.28
2019-05-03T02:28:50.430Z,100396.39
2019-05-03T02:31:23.238Z,100386.55
2019-05-03T02:33:54.677Z,100393.35
2019-05-03T02:36:25.854Z,100390.48
2019-05-03T02:38:57.565Z,100389.86
2019-05-03T02:41:28.798Z,100387.06
2019-05-03T02:44:00.068Z,100395.11
2019-05-03T02:46:49.706Z,100399.71
2019-05-03T02:49:37.008Z,100398.00
2019-05-03T02:52:10.702Z,100395.48
2019-05-03T02:54:46.418Z,100398.08
2019-05-03T02:57:17.490Z,100395.53
2019-05-03T02:59:49.869Z,100401.32
2019-05-03T03:02:21.697Z,100397.94
2019-05-03T03:04:56.152Z,100405.48
2019-05-03T03:07:27.046Z,100405.21
2019-05-03T03:10:00.511Z,100403.39
2019-05-03T03:12:35.577Z,100401.01
2019-05-03T03:15:06.823Z,100405.61
2019-05-03T03:17:39.843Z,100411.05
2019-05-03T03:20:11.742Z,100417.91
2019-05-03T03:22:45.800Z,100407.38
2019-05-03T03:25:25.957Z,100422.41
2019-05-03T03:28:00.322Z,100413.92
2019-05-03T03:30:57.480Z,100419.08
2019-05-03T03:33:28.497Z,100419.05
2019-05-03T03:36:29.480Z,100414.86
2019-05-03T03:38:55.416Z,100416.75
2019-05-03T03:41:27.373Z,100421.44
2019-05-03T03:43:59.502Z,100419.27
2019-05-03T03:46:32.423Z,100426.15
2019-05-03T03:49:07.027Z,100427.53
2019-05-03T03:51:40.365Z,100432.27
2019-05-03T03:54:15.630Z,100434.98
2019-05-03T03:57:02.173Z,100440.56
2019-05-03T03:59:26.565Z,100445.30
2019-05-03T04:01:58.704Z,100447.05
2019-05-03T04:04:35.831Z,100449.66
2019-05-03T04:07:07.361Z,100459.78
2019-05-03T04:09:39.470Z,100462.23
2019-05-03T04:12:10.790Z,100451.41
2019-05-03T04:14:56.298Z,100467.66
2019-05-03T04:17:46.661Z,100466.58
2019-05-03T04:20:21.039Z,100477.21
2019-05-03T04:22:52.349Z,100478.84
2019-05-03T04:25:26.159Z,100477.25
2019-05-03T04:27:57.171Z,100484.17
2019-05-03T04:30:28.326Z,100481.45
2019-05-03T04:33:00.580Z,100483.97
2019-05-03T04:35:31.834Z,100491.30
2019-05-03T04:38:05.483Z,100491.31
2019-05-03T04:40:36.282Z,100497.34
2019-05-03T04:43:07.602Z,100500.98
2019-05-03T04:45:38.785Z,100499.65
2019-05-03T04:48:11.334Z,100500.61
2019-05-03T04:50:42.448Z,100507.91
2019-05-03T04:53:15.953Z,100499.82
2019-05-03T04:55:47.017Z,100509.84
2019-05-03T04:58:18.604Z,100508.70
2019-05-03T05:00:49.790Z,100511.85
2019-05-03T05:03:20.983Z,100513.73
2019-05-03T05:05:52.199Z,100523.28
2019-05-03T05:08:25.265Z,100517.83
2019-05-03T05:10:56.627Z,100516.45
2019-05-03T05:13:27.873Z,100532.22
2019-05-03T05:15:59.237Z,100523.75
2019-05-03T05:18:35.617Z,100535.19
2019-05-03T05:21:11.548Z,100533.86
2019-05-03T05:24:05.521Z,100540.73
2019-05-03T05:27:02.439Z,100537.79
2019-05-03T05:29:35.082Z,100542.06
2019-05-03T05:32:06.633Z,100543.53
2019-05-03T05:34:37.877Z,100545.63
2019-05-03T05:37:09.130Z,100548.54
2019-05-03T05:39:40.436Z,100541.92
2019-05-03T05:42:12.165Z,100545.30
2019-05-03T05:44:45.378Z,100553.52
2019-05-03T05:47:40.875Z,100548.87
2019-05-03T05:50:22.767Z,100552.02
2019-05-03T05:52:55.212Z,100559.18
2019-05-03T05:55:48.583Z,100561.69
2019-05-03T05:58:34.662Z,100563.36
2019-05-03T06:01:16.209Z,100556.05
2019-05-03T06:03:47.887Z,100563.01
2019-05-03T06:06:27.084Z,100563.41
2019-05-03T06:09:05.534Z,100567.20
2019-05-03T06:11:56.895Z,100561.87
2019-05-03T06:16:15.511Z,100558.53
2019-05-03T06:19:18.552Z,100570.53
2019-05-03T06:22:15.384Z,100561.81
2019-05-03T06:24:54.349Z,100575.51
2019-05-03T06:27:34.723Z,100578.17
2019-05-03T06:30:37.290Z,100581.61
2019-05-03T06:33:09.747Z,100574.67
2019-05-03T06:35:41.041Z,100577.72
2019-05-03T06:38:12.294Z,100579.53
2019-05-03T06:40:44.679Z,100576.50
2019-05-03T06:43:16.668Z,100567.86
2019-05-03T06:45:50.567Z,100566.50
2019-05-03T06:48:27.973Z,100568.76
2019-05-03T06:51:00.395Z,100566.36
2019-05-03T06:53:30.519Z,100574.00
2019-05-03T06:56:01.948Z,100574.44
2019-05-03T07:01:30.104Z,100571.12
2019-05-03T07:04:24.412Z,100574.05
2019-05-03T07:07:08.185Z,100575.73
2019-05-03T07:09:47.159Z,100571.02
2019-05-03T07:12:19.195Z,100570.24
2019-05-03T07:14:59.869Z,100571.97
2019-05-03T07:17:31.537Z,100577.52
2019-05-03T07:20:04.642Z,100576.95
2019-05-03T07:22:37.304Z,100584.27
2019-05-03T07:25:08.910Z,100586.33
2019-05-03T07:27:40.267Z,100572.87
2019-05-03T07:30:12.301Z,100569.39
2019-05-03T07:32:45.736Z,100570.55
2019-05-03T07:35:18.042Z,100563.13
2019-05-03T07:37:49.320Z,100576.22
2019-05-03T07:40:20.976Z,100585.20
2019-05-03T07:42:52.673Z,100590.66
2019-05-03T07:45:25.521Z,100580.61
2019-05-03T07:47:58.538Z,100572.84
2019-05-03T07:50:35.763Z,100571.66
2019-05-03T07:53:08.460Z,100570.67
2019-05-03T07:55:57.803Z,100568.80
2019-05-03T07:58:35.530Z,100574.47
2019-05-03T08:01:09.579Z,100567.47
2019-05-03T08:03:40.013Z,100565.87
2019-05-03T08:06:11.582Z,100581.80
2019-05-03T08:08:45.416Z,100568.95
2019-05-03T08:11:17.219Z,100565.50
2019-05-03T08:13:48.843Z,100572.11
2019-05-03T08:16:20.541Z,100567.00
2019-05-03T08:18:52.040Z,100569.12
2019-05-03T08:21:25.253Z,100580.27
2019-05-03T08:23:56.732Z,100568.78
2019-05-03T08:26:28.544Z,100573.86
2019-05-03T08:29:15.250Z,100585.31
2019-05-03T08:32:02.318Z,100599.69
2019-05-03T08:34:55.456Z,100594.08
2019-05-03T08:37:32.347Z,100600.55
2019-05-03T08:40:05.235Z,100588.05
2019-05-03T08:42:37.328Z,100589.39
2019-05-03T08:45:09.003Z,100580.84
2019-05-03T08:47:45.076Z,100577.67
2019-05-03T08:50:21.331Z,100580.21
2019-05-03T08:52:51.654Z,100576.89
2019-05-03T08:55:25.001Z,100566.37
2019-05-03T08:57:57.727Z,100571.00
2019-05-03T09:00:31.404Z,100566.80
2019-05-03T09:03:15.356Z,100569.02
2019-05-03T09:05:47.555Z,100567.85
2019-05-03T09:08:18.972Z,100569.33
2019-05-03T09:11:05.080Z,100566.27
2019-05-03T09:14:06.369Z,100564.09
2019-05-03T09:16:37.582Z,100557.44
2019-05-03T09:19:09.133Z,100554.98
2019-05-03T09:21:40.371Z,100548.06
2019-05-03T09:24:11.810Z,100548.77
2019-05-03T09:26:44.958Z,100548.17
2019-05-03T09:29:16.410Z,100547.97
2019-05-03T09:31:47.756Z,100559.36
2019-05-03T09:34:18.997Z,100556.59
2019-05-03T09:36:50.351Z,100562.41
2019-05-03T09:39:21.710Z,100557.94
2019-05-03T09:41:55.319Z,100567.97
2019-05-03T09:46:58.820Z,100557.66
2019-05-03T09:49:30.084Z,100556.66
2019-05-03T09:52:02.904Z,100544.44
2019-05-03T09:54:40.835Z,100540.51
2019-05-03T09:57:12.230Z,100528.20
2019-05-03T09:59:56.532Z,100535.70
2019-05-03T10:02:17.733Z,100529.16
2019-05-03T10:04:49.057Z,100540.75
2019-05-03T10:07:20.226Z,100539.33
2019-05-03T10:09:55.298Z,100551.50
2019-05-03T10:12:26.140Z,100555.97
2019-05-03T10:14:57.428Z,100543.16
2019-05-03T10:20:29.780Z,100541.55
2019-05-03T10:23:08.563Z,100541.21
2019-05-03T10:25:40.365Z,100531.12
2019-05-03T10:28:11.751Z,100536.47
2019-05-03T10:30:45.025Z,100544.09
2019-05-03T10:33:21.586Z,100540.66
2019-05-03T10:35:54.511Z,100547.69
2019-05-03T10:38:26.066Z,100541.48
2019-05-03T10:40:57.854Z,100541.83
2019-05-03T10:43:29.158Z,100534.13
2019-05-03T10:46:00.521Z,100542.00
2019-05-03T10:48:31.776Z,100550.67
2019-05-03T10:51:04.706Z,100550.20
2019-05-03T10:53:42.545Z,100549.32
2019-05-03T10:56:23.763Z,100553.23
2019-05-03T10:58:59.263Z,100540.09
2019-05-03T11:01:45.361Z,100548.02
2019-05-03T11:04:17.136Z,100547.48
2019-05-03T11:06:48.590Z,100552.22
2019-05-03T11:09:21.697Z,100550.00
2019-05-03T11:11:55.322Z,100538.69
2019-05-03T11:14:28.685Z,100544.77
2019-05-03T11:17:00.714Z,100529.78
2019-05-03T11:19:34.760Z,100533.30
2019-05-03T11:22:06.184Z,100536.21
2019-05-03T11:24:37.729Z,100536.34
2019-05-03T11:27:16.057Z,100527.45
2019-05-03T11:29:47.461Z,100532.86
2019-05-03T11:32:40.581Z,100534.16
2019-05-03T11:35:32.734Z,100531.34
2019-05-03T11:38:22.618Z,100532.88
2019-05-03T11:40:56.014Z,100530.23
2019-05-03T11:43:27.106Z,100548.20
2019-05-03T11:45:58.709Z,100535.00
2019-05-03T11:48:31.005Z,100537.27
2019-05-03T11:51:02.291Z,100547.43
2019-05-03T11:53:35.612Z,100547.27
2019-05-03T11:56:07.209Z,100536.25
2019-05-03T11:58:38.527Z,100536.48
2019-05-03T12:01:36.361Z,100530.25
2019-05-03T12:04:07.706Z,100543.77
2019-05-03T12:06:40.712Z,100557.20
2019-05-03T12:09:12.563Z,100540.75
2019-05-03T12:11:43.966Z,100527.75
2019-05-03T12:14:15.620Z,100538.67
2019-05-03T12:17:14.417Z,100533.88
2019-05-03T12:19:31.499Z,100525.45
2019-05-03T12:22:02.260Z,100526.78
2019-05-03T12:24:36.421Z,100522.93
2019-05-03T12:27:06.877Z,100526.31
2019-05-03T12:29:38.266Z,100535.30
2019-05-03T12:32:10.003Z,100537.01
2019-05-03T12:34:41.391Z,100520.65
2019-05-03T12:37:12.740Z,100519.58
2019-05-03T12:39:44.091Z,100500.84
2019-05-03T12:42:15.328Z,100513.36
2019-05-03T12:44:46.745Z,100505.00
2019-05-03T12:47:18.035Z,100517.70
2019-05-03T12:49:49.816Z,100526.88
2019-05-03T12:52:22.024Z,100513.77
2019-05-03T12:54:59.523Z,100527.56
2019-05-03T12:57:30.806Z,100514.95
2019-05-03T13:00:30.177Z,100502.50
2019-05-03T13:03:05.287Z,100513.50
2019-05-03T13:05:36.724Z,100504.72
2019-05-03T13:08:35.296Z,100514.73
2019-05-03T13:11:08.396Z,100487.60
2019-05-03T13:13:39.822Z,100507.20
2019-05-03T13:16:15.206Z,100515.69
2019-05-03T13:18:46.129Z,100496.70
2019-05-03T13:21:18.080Z,100493.08
2019-05-03T13:23:49.638Z,100496.16
2019-05-03T13:26:21.129Z,100518.60
2019-05-03T13:28:52.466Z,100497.91
2019-05-03T13:31:25.073Z,100505.98
2019-05-03T13:33:56.829Z,100511.17
2019-05-03T13:36:28.193Z,100510.61
2019-05-03T13:39:11.408Z,100505.65
2019-05-03T13:41:34.965Z,100494.62
2019-05-03T13:44:06.429Z,100495.39
2019-05-03T13:46:37.858Z,100501.09
2019-05-03T13:49:11.309Z,100509.75
2019-05-03T13:51:45.130Z,100497.84
2019-05-03T13:54:16.598Z,100499.03
2019-05-03T13:56:48.805Z,100531.27
2019-05-03T13:59:22.146Z,100521.06
2019-05-03T14:01:54.975Z,100514.41
2019-05-03T14:05:44.680Z,100500.41
2019-05-03T14:08:16.657Z,100503.28
2019-05-03T14:10:50.988Z,100493.55
2019-05-03T14:13:22.499Z,100498.84
2019-05-03T14:15:54.820Z,100507.78
2019-05-03T14:18:26.452Z,100506.89
2019-05-03T14:21:16.303Z,100499.72
2019-05-03T14:24:05.293Z,100502.17
2019-05-03T14:26:36.644Z,100490.01
2019-05-03T14:29:07.975Z,100484.81
2019-05-03T14:31:40.677Z,100489.31
2019-05-03T14:34:11.944Z,100485.47
2019-05-03T14:36:44.978Z,100475.17
2019-05-03T14:39:17.893Z,100470.34
2019-05-03T14:41:49.250Z,100464.77
2019-05-03T14:44:20.490Z,100464.33
2019-05-03T14:46:56.665Z,100466.25
2019-05-03T14:49:29.231Z,100457.95
2019-05-03T14:52:02.292Z,100452.47
2019-05-03T14:54:35.323Z,100440.84
2019-05-03T14:57:38.508Z,100434.50
2019-05-03T15:00:29.419Z,100437.36
2019-05-03T15:03:06.434Z,100422.63
2019-05-03T15:05:38.172Z,100435.64
2019-05-03T15:08:09.551Z,100428.30
2019-05-03T15:10:40.968Z,100432.95
2019-05-03T15:13:12.139Z,100432.17
2019-05-03T15:15:45.128Z,100428.75
2019-05-03T15:18:18.723Z,100432.64
2019-05-03T15:20:51.568Z,100428.88
2019-05-03T15:23:25.426Z,100424.76
2019-05-03T15:25:58.572Z,100435.39
2019-05-03T15:28:29.936Z,100434.30
2019-05-03T15:31:01.551Z,100421.45
2019-05-03T15:33:32.847Z,100423.59
2019-05-03T15:36:08.264Z,100428.91
2019-05-03T15:38:39.940Z,100425.48
2019-05-03T15:41:11.209Z,100425.56
2019-05-03T15:43:59.336Z,100422.64
2019-05-03T15:46:54.446Z,100418.07
2019-05-03T15:49:27.676Z,100409.17
2019-05-03T15:51:59.366Z,100412.00
2019-05-03T15:54:30.855Z,100412.38
2019-05-03T15:57:02.699Z,100406.94
2019-05-03T15:59:35.317Z,100396.86
2019-05-03T16:02:06.524Z,100401.84
2019-05-03T16:04:38.110Z,100410.28
2019-05-03T16:07:09.354Z,100406.34
2019-05-03T16:09:41.020Z,100395.92
2019-05-03T16:12:14.401Z,100393.42
2019-05-03T16:14:45.424Z,100389.07
2019-05-03T16:17:18.029Z,100384.12
2019-05-03T16:19:49.428Z,100386.04
2019-05-03T16:22:20.775Z,100390.62
2019-05-03T16:24:51.973Z,100372.02
2019-05-03T16:27:48.405Z,100388.84
2019-05-03T16:30:42.821Z,100378.26
2019-05-03T16:33:26.594Z,100378.75
2019-05-03T16:35:47.017Z,100378.55
2019-05-03T16:38:18.133Z,100374.45
2019-05-03T16:40:49.566Z,100375.83
2019-05-03T16:43:20.731Z,100366.11
2019-05-03T16:45:52.111Z,100373.12
2019-05-03T16:48:24.797Z,100378.63
2019-05-03T16:50:57.719Z,100378.02
2019-05-03T16:53:29.244Z,100380.94
2019-05-03T16:56:03.358Z,100386.45
2019-05-03T16:58:35.418Z,100387.02
2019-05-03T17:01:06.953Z,100385.11
2019-05-03T17:03:45.763Z,100384.41
2019-05-03T17:06:34.888Z,100390.78
2019-05-03T17:09:38.807Z,100405.67
2019-05-03T17:12:18.736Z,100402.15
2019-05-03T17:14:51.694Z,100429.59
2019-05-03T17:17:25.108Z,100426.34
2019-05-03T17:19:57.061Z,100403.52
2019-05-03T17:22:28.918Z,100401.91
2019-05-03T17:25:00.325Z,100407.52
2019-05-03T17:27:34.302Z,100412.68
2019-05-03T17:30:08.100Z,100418.54
2019-05-03T17:32:39.840Z,100427.32
2019-05-03T17:35:11.402Z,100425.48
2019-05-03T17:37:45.078Z,100452.22
2019-05-03T17:40:27.306Z,100433.46
2019-05-03T17:43:14.636Z,100415.52
2019-05-03T17:45:49.123Z,100412.72
2019-05-03T17:48:20.372Z,100413.69
2019-05-03T17:50:51.968Z,100416.15
2019-05-03T17:53:45.143Z,100412.18
2019-05-03T17:56:55.145Z,100398.35
2019-05-03T17:59:35.341Z,100388.88
2019-05-03T18:02:28.849Z,100392.12
2019-05-03T18:05:20.499Z,100389.17
2019-05-03T18:08:22.102Z,100383.97
2019-05-03T18:11:14.905Z,100377.09
2019-05-03T18:13:46.559Z,100374.47
2019-05-03T18:16:18.125Z,100378.88
2019-05-03T18:18:50.006Z,100373.20
2019-05-03T18:21:21.682Z,100375.45
2019-05-03T18:23:54.515Z,100374.99
2019-05-03T18:26:26.164Z,100369.84
2019-05-03T18:28:57.833Z,100368.51
2019-05-03T18:31:29.589Z,100391.83
2019-05-03T18:34:00.829Z,100378.42
2019-05-03T18:36:32.983Z,100376.17
2019-05-03T18:39:08.558Z,100372.09
2019-05-03T18:41:40.697Z,100372.23
2019-05-03T18:44:30.859Z,100366.97
2019-05-03T18:47:05.511Z,100369.41
2019-05-03T18:49:38.358Z,100367.35
2019-05-03T18:52:17.721Z,100366.69
2019-05-03T18:54:55.178Z,100359.91
2019-05-03T18:57:27.767Z,100355.37
2019-05-03T18:59:59.969Z,100362.86
2019-05-03T19:02:32.073Z,100361.23
2019-05-03T19:05:05.124Z,100388.61
2019-05-03T19:07:56.882Z,100376.98
2019-05-03T19:10:40.203Z,100385.66
2019-05-03T19:13:15.890Z,100366.05
2019-05-03T19:15:47.233Z,100371.70
2019-05-03T19:18:46.755Z,100361.73
2019-05-03T19:21:18.987Z,100363.24
2019-05-03T19:26:41.069Z,100349.98
2019-05-03T19:29:14.761Z,100343.92
2019-05-03T19:31:46.522Z,100340.05
2019-05-03T19:34:18.212Z,100336.34
2019-05-03T19:36:49.940Z,100342.48
2019-05-03T19:39:21.788Z,100325.08
2019-05-03T19:41:55.295Z,100335.31
2019-05-03T19:44:29.259Z,100325.77
2019-05-03T19:47:01.347Z,100318.77
2019-05-03T19:49:35.357Z,100320.03
2019-05-03T19:52:08.789Z,100318.95
2019-05-03T19:54:39.998Z,100322.08
2019-05-03T19:57:15.104Z,100332.53
2019-05-03T19:59:56.869Z,100325.95
2019-05-03T20:03:02.604Z,100327.48
2019-05-03T20:05:41.942Z,100331.53
2019-05-03T20:08:38.277Z,100324.47
2019-05-03T20:11:22.186Z,100322.12
2019-05-03T20:13:55.207Z,100324.89
2019-05-03T20:16:26.882Z,100326.58
2019-05-03T20:18:58.437Z,100329.18
2019-05-03T20:21:29.685Z,100324.75
2019-05-03T20:24:01.029Z,100321.58
2019-05-03T20:26:34.615Z,100323.18
2019-05-03T20:29:05.263Z,100324.04
2019-05-03T20:31:38.214Z,100314.73
2019-05-03T20:34:09.706Z,100314.70
2019-05-03T20:36:40.954Z,100309.65
2019-05-03T20:39:12.217Z,100309.89
2019-05-03T20:41:45.363Z,100311.71
2019-05-03T20:44:30.891Z,100301.28
2019-05-03T20:47:27.573Z,100306.43
2019-05-03T20:50:18.461Z,100309.42
2019-05-03T20:52:49.673Z,100305.78
2019-05-03T20:55:25.491Z,100311.69
2019-05-03T20:57:56.591Z,100309.09
2019-05-03T21:00:28.645Z,100312.54
2019-05-03T21:03:00.129Z,100305.77
2019-05-03T21:05:34.630Z,100313.12
2019-05-03T21:08:05.670Z,100311.95
2019-05-03T21:10:37.485Z,100316.49
2019-05-03T21:13:14.630Z,100317.69
2019-05-03T21:16:17.158Z,100318.16
2019-05-03T21:18:57.607Z,100316.24
2019-05-03T21:21:36.855Z,100326.48
2019-05-03T21:24:34.850Z,100315.17
2019-05-03T21:27:06.718Z,100325.21
2019-05-03T21:29:50.738Z,100333.74
2019-05-03T21:32:24.873Z,100332.45
2019-05-03T21:34:56.008Z,100327.08
2019-05-03T21:37:27.696Z,100319.78
2019-05-03T21:39:59.212Z,100318.80
2019-05-03T21:42:30.560Z,100320.91
2019-05-03T21:45:02.001Z,100323.84
2019-05-03T21:47:49.470Z,100318.66
2019-05-03T21:50:21.511Z,100316.48
2019-05-03T21:52:57.567Z,100320.91
2019-05-03T21:55:29.135Z,100312.08
2019-05-03T21:58:01.265Z,100315.91
2019-05-03T22:00:50.290Z,100309.27
2019-05-03T22:03:22.052Z,100307.63
2019-05-03T22:05:55.989Z,100305.70
2019-05-03T22:08:26.205Z,100311.73
2019-05-03T22:10:57.562Z,100308.70
2019-05-03T22:13:28.873Z,100312.20
2019-05-03T22:16:07.436Z,100308.84
2019-05-03T22:18:38.761Z,100310.13
2019-05-03T22:21:28.913Z,100307.89
2019-05-03T22:24:21.904Z,100315.80
2019-05-03T22:27:07.996Z,100305.93
2019-05-03T22:29:39.542Z,100316.08
2019-05-03T22:32:10.727Z,100320.06
2019-05-03T22:34:42.477Z,100307.93
2019-05-03T22:37:14.238Z,100305.78
2019-05-03T22:39:47.677Z,100304.78
2019-05-03T22:42:20.075Z,100304.97
2019-05-03T22:44:51.850Z,100299.41
2019-05-03T22:48:08.661Z,100307.16
2019-05-03T22:50:39.941Z,100301.41
2019-05-03T22:53:11.210Z,100307.97
2019-05-03T22:55:45.003Z,100294.09
2019-05-03T22:58:15.880Z,100297.84
2019-05-03T23:00:47.174Z,100297.66
2019-05-03T23:03:18.476Z,100296.54
2019-05-03T23:05:49.798Z,100295.63
2019-05-03T23:08:21.400Z,100293.27
2019-05-03T23:10:54.560Z,100285.84
2019-05-03T23:13:25.605Z,100282.82
2019-05-03T23:15:56.798Z,100292.12
2019-05-03T23:18:27.954Z,100295.02
2019-05-03T23:21:08.665Z,100283.43
2019-05-03T23:23:49.643Z,100283.38
2019-05-03T23:26:25.281Z,100284.50
2019-05-03T23:28:56.555Z,100275.88
2019-05-03T23:31:27.766Z,100290.63
2019-05-03T23:33:59.047Z,100284.34
2019-05-03T23:36:33.597Z,100283.63
2019-05-03T23:39:05.150Z,100291.03
2019-05-03T23:41:37.082Z,100285.36
2019-05-03T23:44:08.410Z,100275.45
2019-05-03T23:46:46.456Z,100276.31
2019-05-03T23:49:18.189Z,100267.20
2019-05-03T23:51:55.747Z,100263.27
2019-05-03T23:54:27.207Z,100267.64
2019-05-03T23:56:58.452Z,100280.68
2019-05-03T23:59:29.601Z,100275.50
